Terminal Aerodrome Forecast
Issued by NWS

Home | Current Version | Previous Version | Text Only | Print | Product List | Glossary On
Versions: 1 2 3 4 5 6 7 8 9 10 11 12 13 14 15 16 17 18 19 20 21
000
FTUS43 KAPX 220500
TAFPLN
TAF
KPLN 220523Z 2206/2306 00000KT 6SM BR SCT008
      TEMPO 2207/2209 2SM BR BKN008
     FM220900 00000KT 3/4SM BR BKN005
     FM221100 00000KT 3SM BR SCT010
     FM221400 10005KT P6SM BKN040=

USA.gov is the U.S. government's official web portal to all federal, state and local government web resources and services.